Barry, Texas
Current Conditions -  °F | °C
As of 6:53 AM on Wednesday 26 Nov 2014 (Local Time) from KCRS Reporting Station
Clear Clear  
Wind Chill:   Ceiling: Unl
Heat Index:   Visibility: 10mi
Dew Point: -1°   Wind: 12mph
Humidity: 65%   Direction: 200°SSW
Pressure: 30.1"   Gusts: NA
Location:  32.1°N, 96.64°W
Report Text: KCRS 261253Z AUTO 20010KT 10SM CLR 06/M01 A3010 RMK AO2 SLP193 T00561006
Loading
Personal Weather Stations






























Interactive Weather Map New forecast layout! Learn more

10-Day Weather Forecast

Advertisements
Track Severe Weather on mobile